createdAt,value
2017-07-15T00:00:45.478Z,12.20
2017-07-15T00:03:14.136Z,12.20
2017-07-15T00:05:42.514Z,12.10
2017-07-15T00:08:10.890Z,12.00
2017-07-15T00:10:39.302Z,12.10
2017-07-15T00:13:07.694Z,12.00
2017-07-15T00:15:36.085Z,12.00
2017-07-15T00:18:04.700Z,11.90
2017-07-15T00:20:33.113Z,11.90
2017-07-15T00:23:01.531Z,11.90
2017-07-15T00:25:30.137Z,12.00
2017-07-15T00:27:59.315Z,11.90
2017-07-15T00:30:27.709Z,11.90
2017-07-15T00:32:57.115Z,11.90
2017-07-15T00:35:25.575Z,11.80
2017-07-15T00:37:53.990Z,11.80
2017-07-15T00:40:22.874Z,11.80
2017-07-15T00:42:51.264Z,11.70
2017-07-15T00:45:19.707Z,11.70
2017-07-15T00:47:48.143Z,11.60
2017-07-15T00:50:16.614Z,11.60
2017-07-15T00:52:44.995Z,11.60
2017-07-15T00:55:13.880Z,11.60
2017-07-15T00:57:42.261Z,11.60
2017-07-15T01:00:09.958Z,11.50
2017-07-15T01:02:38.571Z,11.50
2017-07-15T01:05:07.481Z,11.50
2017-07-15T01:07:35.879Z,11.50
2017-07-15T01:10:04.331Z,11.40
2017-07-15T01:12:32.715Z,11.40
2017-07-15T01:15:01.097Z,11.30
2017-07-15T01:17:29.495Z,11.20
2017-07-15T01:19:57.187Z,11.30
2017-07-15T01:22:25.579Z,11.30
2017-07-15T01:24:54.090Z,11.30
2017-07-15T01:27:22.464Z,11.30
2017-07-15T01:29:50.857Z,11.30
2017-07-15T01:32:19.272Z,11.30
2017-07-15T01:34:47.661Z,11.30
2017-07-15T01:37:16.036Z,11.30
2017-07-15T01:39:44.667Z,11.20
2017-07-15T01:42:12.734Z,11.20
2017-07-15T01:44:41.893Z,11.20
2017-07-15T01:47:10.542Z,11.20
2017-07-15T01:49:38.580Z,11.20
2017-07-15T01:52:07.736Z,11.20
2017-07-15T01:54:36.487Z,11.10
2017-07-15T01:57:04.200Z,11.10
2017-07-15T01:59:32.583Z,11.00
2017-07-15T02:02:01.097Z,11.00
2017-07-15T02:04:30.279Z,11.00
2017-07-15T02:06:59.418Z,11.00
2017-07-15T02:09:27.825Z,11.10
2017-07-15T02:11:56.207Z,11.00
2017-07-15T02:14:24.587Z,11.00
2017-07-15T02:16:53.094Z,11.00
2017-07-15T02:19:22.245Z,11.00
2017-07-15T02:21:50.632Z,11.00
2017-07-15T02:24:19.373Z,11.00
2017-07-15T02:26:47.751Z,11.00
2017-07-15T02:29:16.138Z,11.00
2017-07-15T02:31:45.326Z,10.90
2017-07-15T02:34:13.717Z,10.90
2017-07-15T02:36:42.106Z,10.90
2017-07-15T02:39:10.665Z,10.90
2017-07-15T02:41:39.047Z,10.90
2017-07-15T02:44:07.415Z,10.90
2017-07-15T02:46:35.989Z,10.90
2017-07-15T02:49:05.139Z,10.80
2017-07-15T02:51:33.535Z,10.80
2017-07-15T02:54:01.917Z,10.70
2017-07-15T02:56:30.307Z,10.70
2017-07-15T02:58:59.482Z,10.70
2017-07-15T03:01:28.320Z,10.60
2017-07-15T03:03:56.706Z,10.70
2017-07-15T03:06:25.094Z,10.70
2017-07-15T03:08:53.849Z,10.60
2017-07-15T03:11:22.998Z,10.60
2017-07-15T03:13:51.387Z,10.60
2017-07-15T03:16:19.812Z,10.60
2017-07-15T03:18:47.513Z,10.60
2017-07-15T03:21:15.914Z,10.70
2017-07-15T03:23:43.974Z,10.70
2017-07-15T03:26:11.674Z,10.70
2017-07-15T03:28:40.479Z,10.60
2017-07-15T03:31:08.724Z,10.60
2017-07-15T03:33:37.111Z,10.60
2017-07-15T03:36:06.276Z,10.60
2017-07-15T03:38:34.686Z,10.60
2017-07-15T03:41:03.842Z,10.60
2017-07-15T03:43:32.228Z,10.60
2017-07-15T03:46:00.663Z,10.60
2017-07-15T03:48:29.140Z,10.60
2017-07-15T03:50:57.639Z,10.60
2017-07-15T03:53:26.144Z,10.60
2017-07-15T03:55:54.534Z,10.60
2017-07-15T03:58:22.934Z,10.60
2017-07-15T04:00:52.133Z,10.70
2017-07-15T04:03:21.303Z,10.70
2017-07-15T04:05:49.701Z,10.60
2017-07-15T04:08:18.968Z,10.70
2017-07-15T04:10:47.369Z,10.70
2017-07-15T04:13:15.774Z,10.80
2017-07-15T04:15:45.178Z,10.80
2017-07-15T04:18:13.561Z,10.80
2017-07-15T04:20:41.942Z,10.90
2017-07-15T04:23:10.510Z,10.90
2017-07-15T04:25:39.674Z,11.10
2017-07-15T04:28:08.063Z,11.10
2017-07-15T04:30:36.749Z,11.10
2017-07-15T04:33:05.154Z,11.20
2017-07-15T04:35:33.547Z,11.20
2017-07-15T04:38:01.994Z,11.30
2017-07-15T04:40:30.381Z,11.40
2017-07-15T04:42:59.538Z,11.60
2017-07-15T04:45:27.939Z,11.60
2017-07-15T04:47:56.326Z,11.80
2017-07-15T04:50:24.720Z,11.90
2017-07-15T04:52:54.130Z,12.00
2017-07-15T04:55:22.521Z,12.00
2017-07-15T04:57:50.917Z,12.10
2017-07-15T05:00:19.427Z,12.20
2017-07-15T05:02:47.831Z,12.30
2017-07-15T05:05:17.000Z,12.70
2017-07-15T05:07:45.605Z,12.70
2017-07-15T05:10:14.776Z,13.00
2017-07-15T05:12:43.174Z,13.00
2017-07-15T05:15:12.457Z,13.20
2017-07-15T05:17:40.838Z,13.20
2017-07-15T05:20:09.217Z,13.20
2017-07-15T05:22:37.938Z,13.20
2017-07-15T05:25:06.380Z,13.30
2017-07-15T05:27:34.756Z,13.30
2017-07-15T05:30:03.158Z,13.30
2017-07-15T05:32:32.318Z,13.70
2017-07-15T05:35:00.710Z,13.70
2017-07-15T05:37:30.012Z,13.90
2017-07-15T05:39:58.400Z,14.00
2017-07-15T05:42:26.777Z,13.80
2017-07-15T05:44:55.194Z,13.80
2017-07-15T05:47:23.599Z,13.70
2017-07-15T05:49:51.975Z,13.70
2017-07-15T05:52:20.393Z,13.70
2017-07-15T05:54:48.781Z,13.60
2017-07-15T05:57:17.168Z,13.50
2017-07-15T05:59:46.774Z,13.70
2017-07-15T06:02:15.927Z,13.90
2017-07-15T06:04:44.332Z,13.80
2017-07-15T06:07:13.324Z,14.10
2017-07-15T06:09:41.743Z,14.30
2017-07-15T06:12:10.144Z,14.60
2017-07-15T06:14:38.790Z,14.70
2017-07-15T06:17:07.182Z,14.90
2017-07-15T06:19:35.679Z,14.90
2017-07-15T06:22:04.333Z,15.20
2017-07-15T06:24:32.741Z,15.40
2017-07-15T06:27:01.137Z,15.40
2017-07-15T06:29:29.647Z,15.40
2017-07-15T06:31:58.041Z,15.60
2017-07-15T06:34:27.211Z,16.00
2017-07-15T06:36:56.419Z,16.20
2017-07-15T06:39:24.816Z,16.20
2017-07-15T06:41:53.967Z,16.30
2017-07-15T06:44:22.428Z,16.20
2017-07-15T06:46:50.822Z,16.20
2017-07-15T06:49:19.200Z,16.60
2017-07-15T06:51:48.440Z,16.80
2017-07-15T06:54:17.592Z,16.80
2017-07-15T06:56:45.998Z,16.80
2017-07-15T06:59:14.598Z,17.20
2017-07-15T07:01:43.775Z,17.20
2017-07-15T07:04:12.175Z,17.20
2017-07-15T07:06:40.632Z,16.80
2017-07-15T07:09:09.023Z,16.80
2017-07-15T07:11:38.178Z,16.80
2017-07-15T07:14:06.594Z,16.80
2017-07-15T07:16:34.987Z,16.90
2017-07-15T07:19:04.127Z,16.60
2017-07-15T07:21:32.700Z,16.60
2017-07-15T07:24:01.075Z,16.30
2017-07-15T07:26:29.471Z,16.10
2017-07-15T07:28:58.206Z,16.20
2017-07-15T07:31:27.372Z,16.70
2017-07-15T07:33:55.765Z,16.70
2017-07-15T07:36:24.182Z,16.80
2017-07-15T07:38:52.574Z,16.80
2017-07-15T07:41:20.975Z,17.10
2017-07-15T07:43:49.393Z,17.20
2017-07-15T07:46:18.544Z,17.20
2017-07-15T07:48:46.933Z,17.10
2017-07-15T07:51:15.324Z,17.30
2017-07-15T07:53:43.729Z,17.30
2017-07-15T07:56:12.355Z,17.10
2017-07-15T07:58:40.970Z,16.80
2017-07-15T08:01:09.359Z,16.80
2017-07-15T08:03:38.533Z,17.10
2017-07-15T08:06:06.950Z,17.10
2017-07-15T08:08:35.355Z,17.60
2017-07-15T08:11:03.727Z,17.20
2017-07-15T08:13:32.221Z,17.10
2017-07-15T08:16:00.605Z,16.80
2017-07-15T08:18:29.000Z,17.00
2017-07-15T08:20:58.336Z,17.40
2017-07-15T08:23:27.482Z,17.80
2017-07-15T08:25:55.880Z,17.80
2017-07-15T08:28:24.310Z,18.00
2017-07-15T08:30:52.685Z,17.90
2017-07-15T08:33:21.072Z,18.30
2017-07-15T08:35:49.761Z,17.90
2017-07-15T08:38:18.149Z,18.00
2017-07-15T08:40:46.539Z,18.10
2017-07-15T08:43:14.937Z,17.80
2017-07-15T08:45:43.327Z,17.70
2017-07-15T08:48:11.701Z,17.60
2017-07-15T08:50:40.549Z,17.60
2017-07-15T08:53:08.965Z,17.70
2017-07-15T08:55:37.395Z,17.80
2017-07-15T08:58:05.961Z,18.10
2017-07-15T09:00:34.353Z,18.50
2017-07-15T09:03:02.749Z,19.00
2017-07-15T09:05:32.054Z,19.30
2017-07-15T09:08:00.442Z,19.40
2017-07-15T09:10:28.817Z,18.60
2017-07-15T09:12:57.276Z,18.00
2017-07-15T09:15:25.672Z,18.00
2017-07-15T09:17:54.075Z,18.50
2017-07-15T09:20:22.792Z,19.00
2017-07-15T09:22:51.978Z,18.90
2017-07-15T09:25:21.132Z,18.60
2017-07-15T09:27:49.553Z,18.60
2017-07-15T09:30:18.705Z,18.40
2017-07-15T09:32:47.095Z,18.40
2017-07-15T09:35:15.709Z,18.40
2017-07-15T09:37:44.865Z,18.80
2017-07-15T09:40:13.253Z,18.80
2017-07-15T09:42:41.953Z,18.80
2017-07-15T09:45:10.347Z,19.00
2017-07-15T09:47:39.617Z,19.40
2017-07-15T09:50:08.442Z,19.40
2017-07-15T09:52:37.106Z,19.50
2017-07-15T09:55:05.485Z,19.50
2017-07-15T09:57:33.944Z,19.50
2017-07-15T10:00:02.320Z,19.40
2017-07-15T10:02:30.693Z,18.90
2017-07-15T10:04:59.243Z,18.90
2017-07-15T10:07:27.637Z,18.90
2017-07-15T10:09:56.026Z,19.00
2017-07-15T10:12:24.471Z,19.10
2017-07-15T10:14:52.850Z,19.10
2017-07-15T10:17:21.249Z,19.00
2017-07-15T10:19:49.659Z,18.90
2017-07-15T10:22:18.050Z,19.40
2017-07-15T10:24:46.455Z,19.50
2017-07-15T10:27:14.990Z,19.70
2017-07-15T10:29:43.364Z,19.90
2017-07-15T10:32:11.754Z,19.90
2017-07-15T10:34:40.371Z,19.90
2017-07-15T10:37:09.517Z,19.90
2017-07-15T10:39:37.901Z,19.90
2017-07-15T10:42:06.355Z,19.80
2017-07-15T10:44:34.752Z,19.90
2017-07-15T10:47:03.154Z,20.00
2017-07-15T10:49:31.592Z,19.80
2017-07-15T10:51:59.976Z,20.10
2017-07-15T10:54:28.384Z,20.50
2017-07-15T10:56:56.796Z,20.30
2017-07-15T10:59:25.177Z,19.70
2017-07-15T11:01:53.562Z,19.50
2017-07-15T11:04:22.017Z,19.90
2017-07-15T11:06:50.421Z,20.50
2017-07-15T11:09:18.820Z,21.10
2017-07-15T11:11:48.117Z,21.50
2017-07-15T11:14:16.506Z,22.00
2017-07-15T11:16:44.909Z,21.70
2017-07-15T11:19:13.465Z,21.20
2017-07-15T11:21:41.852Z,20.60
2017-07-15T11:24:10.256Z,20.70
2017-07-15T11:26:38.703Z,20.50
2017-07-15T11:29:07.145Z,20.20
2017-07-15T11:31:35.533Z,19.80
2017-07-15T11:34:04.142Z,20.10
2017-07-15T11:36:32.531Z,20.00
2017-07-15T11:39:00.924Z,20.00
2017-07-15T11:41:29.345Z,19.90
2017-07-15T11:43:57.733Z,19.60
2017-07-15T11:46:26.103Z,20.10
2017-07-15T11:48:54.678Z,20.00
2017-07-15T11:51:23.091Z,20.10
2017-07-15T11:53:51.501Z,19.80
2017-07-15T11:56:20.131Z,19.80
2017-07-15T11:58:48.529Z,20.00
2017-07-15T12:01:16.927Z,20.60
2017-07-15T12:03:45.553Z,21.00
2017-07-15T12:06:14.737Z,20.70
2017-07-15T12:08:43.232Z,20.70
2017-07-15T12:11:11.681Z,20.80
2017-07-15T12:13:40.095Z,20.70
2017-07-15T12:16:08.475Z,20.80
2017-07-15T12:18:36.862Z,21.00
2017-07-15T12:21:05.067Z,20.90
2017-07-15T12:23:33.460Z,21.00
2017-07-15T12:26:01.808Z,20.90
2017-07-15T12:28:30.219Z,20.50
2017-07-15T12:30:58.617Z,20.10
2017-07-15T12:33:27.214Z,20.00
2017-07-15T12:35:55.602Z,20.20
2017-07-15T12:38:24.005Z,20.40
2017-07-15T12:40:52.666Z,20.50
2017-07-15T12:43:21.050Z,20.80
2017-07-15T12:45:49.445Z,21.00
2017-07-15T12:48:18.200Z,21.40
2017-07-15T12:50:46.628Z,21.20
2017-07-15T12:53:15.018Z,20.90
2017-07-15T12:55:43.474Z,20.80
2017-07-15T12:58:11.855Z,20.60
2017-07-15T13:00:40.273Z,21.30
2017-07-15T13:03:08.722Z,22.00
2017-07-15T13:05:37.112Z,22.20
2017-07-15T13:08:05.487Z,22.40
2017-07-15T13:10:34.909Z,22.30
2017-07-15T13:13:03.303Z,22.30
2017-07-15T13:15:31.694Z,22.40
2017-07-15T13:18:01.297Z,22.80
2017-07-15T13:20:29.684Z,22.80
2017-07-15T13:22:58.089Z,23.00
2017-07-15T13:25:26.900Z,23.00
2017-07-15T13:27:55.290Z,23.10
2017-07-15T13:30:23.680Z,23.10
2017-07-15T13:32:52.984Z,22.80
2017-07-15T13:35:21.357Z,22.70
2017-07-15T13:37:49.743Z,22.40
2017-07-15T13:40:18.227Z,22.00
2017-07-15T13:42:46.656Z,22.00
2017-07-15T13:45:15.052Z,21.70
2017-07-15T13:47:43.888Z,21.80
2017-07-15T13:50:12.288Z,21.90
2017-07-15T13:52:40.686Z,21.70
2017-07-15T13:55:09.144Z,21.60
2017-07-15T13:57:37.530Z,21.40
2017-07-15T14:00:05.934Z,21.30
2017-07-15T14:02:34.345Z,21.00
2017-07-15T14:05:03.513Z,20.80
2017-07-15T14:07:31.917Z,20.80
2017-07-15T14:10:00.495Z,21.20
2017-07-15T14:12:29.654Z,22.00
2017-07-15T14:14:58.099Z,22.00
2017-07-15T14:17:26.643Z,22.00
2017-07-15T14:19:55.057Z,21.80
2017-07-15T14:22:23.464Z,21.90
2017-07-15T14:24:52.110Z,22.00
2017-07-15T14:27:20.623Z,21.90
2017-07-15T14:29:49.027Z,21.70
2017-07-15T14:32:17.729Z,21.50
2017-07-15T14:34:46.378Z,21.10
2017-07-15T14:37:14.763Z,21.10
2017-07-15T14:39:43.391Z,21.10
2017-07-15T14:42:11.790Z,21.00
2017-07-15T14:44:40.194Z,21.00
2017-07-15T14:47:08.650Z,21.50
2017-07-15T14:49:37.038Z,21.90
2017-07-15T14:52:05.426Z,22.10
2017-07-15T14:54:35.339Z,22.00
2017-07-15T14:57:03.740Z,22.00
2017-07-15T14:59:32.119Z,21.60
2017-07-15T15:02:00.788Z,21.40
2017-07-15T15:04:29.258Z,21.70
2017-07-15T15:06:57.662Z,21.70
2017-07-15T15:09:26.162Z,21.60
2017-07-15T15:11:54.649Z,21.70
2017-07-15T15:14:23.991Z,21.50
2017-07-15T15:16:52.425Z,21.50
2017-07-15T15:19:21.678Z,21.50
2017-07-15T15:21:50.072Z,21.50
2017-07-15T15:24:18.445Z,21.40
2017-07-15T15:26:46.864Z,21.40
2017-07-15T15:29:15.254Z,21.20
2017-07-15T15:31:43.778Z,21.20
2017-07-15T15:34:12.181Z,20.90
2017-07-15T15:36:40.642Z,20.70
2017-07-15T15:39:09.382Z,20.70
2017-07-15T15:41:37.799Z,20.70
2017-07-15T15:44:06.188Z,20.70
2017-07-15T15:46:34.681Z,20.90
2017-07-15T15:49:03.086Z,20.90
2017-07-15T15:51:31.480Z,21.00
2017-07-15T15:53:59.989Z,20.80
2017-07-15T15:56:28.415Z,20.70
2017-07-15T15:58:56.808Z,20.90
2017-07-15T16:01:25.256Z,21.00
2017-07-15T16:03:53.661Z,21.10
2017-07-15T16:06:22.833Z,21.10
2017-07-15T16:08:51.249Z,21.10
2017-07-15T16:11:19.670Z,21.10
2017-07-15T16:13:48.072Z,20.90
2017-07-15T16:16:16.524Z,21.00
2017-07-15T16:18:44.941Z,20.90
2017-07-15T16:21:14.113Z,21.10
2017-07-15T16:23:42.633Z,21.10
2017-07-15T16:26:11.788Z,21.00
2017-07-15T16:28:40.202Z,20.90
2017-07-15T16:31:09.395Z,20.50
2017-07-15T16:33:38.593Z,20.60
2017-07-15T16:36:06.974Z,20.60
2017-07-15T16:38:36.149Z,20.60
2017-07-15T16:41:04.554Z,20.50
2017-07-15T16:43:32.959Z,20.40
2017-07-15T16:46:01.707Z,20.50
2017-07-15T16:48:30.121Z,20.70
2017-07-15T16:50:58.623Z,20.70
2017-07-15T16:53:27.768Z,20.60
2017-07-15T16:55:56.945Z,20.70
2017-07-15T16:58:25.018Z,20.60
2017-07-15T17:00:53.444Z,20.80
2017-07-15T17:03:21.878Z,20.90
2017-07-15T17:05:50.266Z,20.90
2017-07-15T17:08:18.850Z,20.80
2017-07-15T17:10:48.065Z,20.60
2017-07-15T17:13:16.467Z,20.60
2017-07-15T17:15:44.895Z,20.50
2017-07-15T17:18:13.328Z,20.50
2017-07-15T17:20:41.729Z,20.70
2017-07-15T17:23:11.058Z,20.70
2017-07-15T17:25:39.462Z,20.70
2017-07-15T17:28:07.841Z,20.70
2017-07-15T17:30:36.412Z,20.60
2017-07-15T17:33:04.843Z,20.70
2017-07-15T17:35:33.256Z,20.80
2017-07-15T17:38:01.661Z,20.90
2017-07-15T17:40:30.189Z,20.90
2017-07-15T17:42:58.695Z,20.70
2017-07-15T17:45:27.233Z,20.70
2017-07-15T17:47:55.688Z,20.70
2017-07-15T17:50:24.099Z,20.80
2017-07-15T17:52:52.800Z,20.80
2017-07-15T17:55:21.189Z,20.90
2017-07-15T17:57:49.633Z,20.90
2017-07-15T18:00:17.845Z,20.90
2017-07-15T18:02:46.299Z,20.90
2017-07-15T18:05:14.702Z,20.80
2017-07-15T18:07:43.911Z,20.50
2017-07-15T18:10:12.305Z,20.40
2017-07-15T18:12:41.132Z,20.30
2017-07-15T18:15:09.793Z,20.30
2017-07-15T18:17:38.208Z,20.20
2017-07-15T18:20:06.623Z,20.20
2017-07-15T18:22:36.062Z,20.00
2017-07-15T18:25:04.473Z,20.10
2017-07-15T18:27:32.856Z,20.00
2017-07-15T18:30:01.267Z,20.20
2017-07-15T18:32:30.420Z,20.50
2017-07-15T18:34:58.833Z,20.50
2017-07-15T18:37:27.320Z,20.50
2017-07-15T18:39:56.475Z,20.50
2017-07-15T18:42:24.910Z,20.40
2017-07-15T18:44:53.342Z,20.40
2017-07-15T18:47:21.742Z,20.40
2017-07-15T18:49:50.919Z,20.30
2017-07-15T18:52:19.442Z,20.30
2017-07-15T18:54:47.834Z,20.30
2017-07-15T18:57:16.236Z,20.30
2017-07-15T18:59:44.657Z,20.30
2017-07-15T19:02:13.825Z,20.20
2017-07-15T19:04:42.232Z,20.20
2017-07-15T19:07:11.655Z,20.10
2017-07-15T19:09:40.044Z,20.10
2017-07-15T19:12:08.479Z,20.10
2017-07-15T19:14:36.935Z,20.10
2017-07-15T19:17:05.334Z,20.10
2017-07-15T19:19:33.735Z,20.00
2017-07-15T19:22:02.959Z,19.90
2017-07-15T19:24:31.389Z,19.90
2017-07-15T19:26:59.840Z,19.90
2017-07-15T19:29:28.577Z,19.90
2017-07-15T19:31:57.751Z,19.90
2017-07-15T19:34:26.153Z,19.90
2017-07-15T19:36:54.747Z,19.80
2017-07-15T19:39:23.906Z,19.70
2017-07-15T19:41:52.309Z,19.70
2017-07-15T19:44:22.377Z,19.70
2017-07-15T19:46:50.786Z,19.60
2017-07-15T19:49:20.186Z,19.50
2017-07-15T19:51:48.819Z,19.50
2017-07-15T19:54:17.221Z,19.50
2017-07-15T19:56:45.614Z,19.50
2017-07-15T19:59:14.319Z,19.50
2017-07-15T20:01:42.698Z,19.40
2017-07-15T20:04:11.100Z,19.40
2017-07-15T20:06:40.441Z,19.30
2017-07-15T20:09:08.842Z,19.30
2017-07-15T20:11:37.231Z,19.20
2017-07-15T20:14:05.635Z,19.10
2017-07-15T20:16:34.805Z,19.00
2017-07-15T20:19:03.204Z,19.00
2017-07-15T20:21:31.660Z,19.00
2017-07-15T20:24:00.050Z,18.80
2017-07-15T20:26:28.440Z,18.80
2017-07-15T20:28:57.028Z,18.70
2017-07-15T20:31:25.429Z,18.70
2017-07-15T20:33:53.859Z,18.60
2017-07-15T20:36:28.223Z,18.60
2017-07-15T20:38:56.621Z,18.50
2017-07-15T20:41:25.018Z,18.50
2017-07-15T20:43:53.613Z,18.50
2017-07-15T20:46:22.007Z,18.50
2017-07-15T20:48:50.413Z,18.40
2017-07-15T20:51:19.110Z,18.40
2017-07-15T20:53:53.171Z,18.40
2017-07-15T20:56:21.620Z,18.30
2017-07-15T20:58:50.030Z,18.30
2017-07-15T21:01:18.447Z,18.20
2017-07-15T21:03:47.309Z,18.20
2017-07-15T21:06:16.524Z,18.20
2017-07-15T21:08:44.946Z,18.20
2017-07-15T21:11:13.369Z,18.20
2017-07-15T21:13:42.509Z,18.20
2017-07-15T21:16:10.914Z,18.20
2017-07-15T21:18:39.663Z,18.20
2017-07-15T21:21:08.049Z,18.10
2017-07-15T21:23:36.453Z,18.10
2017-07-15T21:26:04.888Z,18.10
2017-07-15T21:28:33.295Z,18.00
2017-07-15T21:31:01.713Z,18.00
2017-07-15T21:33:30.906Z,18.00
2017-07-15T21:35:59.303Z,18.00
2017-07-15T21:38:28.479Z,18.00
2017-07-15T21:40:57.867Z,17.90
2017-07-15T21:43:26.263Z,17.90
2017-07-15T21:45:54.677Z,17.90
2017-07-15T21:48:23.281Z,17.90
2017-07-15T21:50:52.503Z,17.90
2017-07-15T21:53:20.899Z,17.90
2017-07-15T21:55:49.423Z,17.90
2017-07-15T21:58:17.829Z,17.90
2017-07-15T22:00:46.272Z,17.80
2017-07-15T22:03:14.700Z,17.90
2017-07-15T22:05:42.749Z,17.90
2017-07-15T22:08:11.431Z,17.90
2017-07-15T22:10:40.130Z,17.80
2017-07-15T22:13:08.546Z,17.80
2017-07-15T22:15:37.711Z,17.80
2017-07-15T22:18:06.181Z,17.80
2017-07-15T22:20:34.679Z,17.80
2017-07-15T22:23:03.088Z,17.80
2017-07-15T22:25:32.353Z,17.70
2017-07-15T22:28:00.744Z,17.70
2017-07-15T22:30:29.208Z,17.70
2017-07-15T22:32:57.836Z,17.70
2017-07-15T22:35:27.009Z,17.70
2017-07-15T22:37:55.410Z,17.70
2017-07-15T22:40:24.604Z,17.70
2017-07-15T22:42:53.092Z,17.70
2017-07-15T22:45:22.243Z,17.70
2017-07-15T22:47:51.227Z,17.70
2017-07-15T22:50:19.622Z,17.70
2017-07-15T22:52:48.070Z,17.70
2017-07-15T22:55:17.399Z,17.70
2017-07-15T22:57:45.803Z,17.70
2017-07-15T23:00:14.962Z,17.70
2017-07-15T23:02:43.367Z,17.70
2017-07-15T23:05:11.796Z,17.60
2017-07-15T23:07:40.281Z,17.60
2017-07-15T23:10:08.860Z,17.60
2017-07-15T23:12:37.264Z,17.70
2017-07-15T23:15:05.659Z,17.60
2017-07-15T23:17:34.073Z,17.60
2017-07-15T23:20:02.476Z,17.70
2017-07-15T23:22:30.955Z,17.60
2017-07-15T23:24:59.714Z,17.60
2017-07-15T23:27:28.895Z,17.70
2017-07-15T23:29:58.048Z,17.70
2017-07-15T23:32:26.949Z,17.70
2017-07-15T23:34:55.338Z,17.50
2017-07-15T23:37:23.727Z,17.40
2017-07-15T23:39:52.733Z,17.50
2017-07-15T23:42:21.904Z,17.50
2017-07-15T23:44:50.303Z,17.50
2017-07-15T23:47:19.625Z,17.60
2017-07-15T23:49:48.764Z,17.60
2017-07-15T23:52:17.186Z,17.60
2017-07-15T23:54:46.381Z,17.50
2017-07-15T23:57:15.535Z,17.50
2017-07-15T23:59:43.926Z,17.50
